sensor_id;sensor_type;location;lat;lon;timestamp;P1;durP1;ratioP1;P2;durP2;ratioP2
66546;SDS011;53400;50.364;14.874;2023-06-05T00:01:27;6.68;;;2.70;;
66546;SDS011;53400;50.364;14.874;2023-06-05T00:03:53;6.45;;;2.88;;
66546;SDS011;53400;50.364;14.874;2023-06-05T00:06:22;6.63;;;2.70;;
66546;SDS011;53400;50.364;14.874;2023-06-05T00:08:48;5.80;;;2.88;;
66546;SDS011;53400;50.364;14.874;2023-06-05T00:11:16;6.10;;;2.70;;
66546;SDS011;53400;50.364;14.874;2023-06-05T00:13:43;7.10;;;2.80;;
66546;SDS011;53400;50.364;14.874;2023-06-05T00:16:09;6.00;;;2.58;;
66546;SDS011;53400;50.364;14.874;2023-06-05T00:18:35;6.05;;;2.83;;
66546;SDS011;53400;50.364;14.874;2023-06-05T00:21:01;5.40;;;2.55;;
66546;SDS011;53400;50.364;14.874;2023-06-05T00:23:31;5.88;;;2.85;;
66546;SDS011;53400;50.364;14.874;2023-06-05T00:25:58;5.50;;;2.75;;
66546;SDS011;53400;50.364;14.874;2023-06-05T00:28:24;5.70;;;2.70;;
66546;SDS011;53400;50.364;14.874;2023-06-05T00:30:51;5.90;;;3.15;;
66546;SDS011;53400;50.364;14.874;2023-06-05T00:33:17;6.40;;;2.78;;
66546;SDS011;53400;50.364;14.874;2023-06-05T00:35:44;6.63;;;2.80;;
66546;SDS011;53400;50.364;14.874;2023-06-05T00:38:10;6.25;;;2.60;;
66546;SDS011;53400;50.364;14.874;2023-06-05T00:40:38;6.43;;;2.72;;
66546;SDS011;53400;50.364;14.874;2023-06-05T00:43:04;4.88;;;2.47;;
66546;SDS011;53400;50.364;14.874;2023-06-05T00:45:34;5.97;;;2.88;;
66546;SDS011;53400;50.364;14.874;2023-06-05T00:48:00;6.38;;;2.50;;
66546;SDS011;53400;50.364;14.874;2023-06-05T00:50:27;5.97;;;2.97;;
66546;SDS011;53400;50.364;14.874;2023-06-05T00:52:56;6.43;;;2.80;;
66546;SDS011;53400;50.364;14.874;2023-06-05T00:55:23;5.60;;;2.42;;
66546;SDS011;53400;50.364;14.874;2023-06-05T00:57:52;5.45;;;2.42;;
66546;SDS011;53400;50.364;14.874;2023-06-05T01:00:20;6.10;;;2.80;;
66546;SDS011;53400;50.364;14.874;2023-06-05T01:02:47;6.32;;;3.00;;
66546;SDS011;53400;50.364;14.874;2023-06-05T01:05:14;8.68;;;2.60;;
66546;SDS011;53400;50.364;14.874;2023-06-05T01:07:40;5.40;;;2.97;;
66546;SDS011;53400;50.364;14.874;2023-06-05T01:10:07;6.43;;;2.90;;
66546;SDS011;53400;50.364;14.874;2023-06-05T01:12:37;5.22;;;2.65;;
66546;SDS011;53400;50.364;14.874;2023-06-05T01:15:09;5.68;;;2.50;;
66546;SDS011;53400;50.364;14.874;2023-06-05T01:17:35;4.65;;;2.55;;
66546;SDS011;53400;50.364;14.874;2023-06-05T01:20:04;5.88;;;2.80;;
66546;SDS011;53400;50.364;14.874;2023-06-05T01:22:35;5.43;;;2.70;;
66546;SDS011;53400;50.364;14.874;2023-06-05T01:25:06;5.75;;;2.72;;
66546;SDS011;53400;50.364;14.874;2023-06-05T01:27:36;6.38;;;2.78;;
66546;SDS011;53400;50.364;14.874;2023-06-05T01:30:09;6.30;;;2.75;;
66546;SDS011;53400;50.364;14.874;2023-06-05T01:32:52;5.93;;;2.78;;
66546;SDS011;53400;50.364;14.874;2023-06-05T01:35:23;6.55;;;2.53;;
66546;SDS011;53400;50.364;14.874;2023-06-05T01:37:56;5.32;;;2.40;;
66546;SDS011;53400;50.364;14.874;2023-06-05T01:40:26;5.57;;;2.67;;
66546;SDS011;53400;50.364;14.874;2023-06-05T01:42:52;6.47;;;2.75;;
66546;SDS011;53400;50.364;14.874;2023-06-05T01:45:22;6.32;;;2.60;;
66546;SDS011;53400;50.364;14.874;2023-06-05T01:47:48;7.30;;;2.83;;
66546;SDS011;53400;50.364;14.874;2023-06-05T01:50:16;6.28;;;2.70;;
66546;SDS011;53400;50.364;14.874;2023-06-05T01:52:44;5.15;;;2.35;;
66546;SDS011;53400;50.364;14.874;2023-06-05T01:55:13;5.47;;;2.75;;
66546;SDS011;53400;50.364;14.874;2023-06-05T01:57:43;7.50;;;3.25;;
66546;SDS011;53400;50.364;14.874;2023-06-05T02:00:10;5.10;;;2.60;;
66546;SDS011;53400;50.364;14.874;2023-06-05T02:02:38;4.60;;;2.20;;
66546;SDS011;53400;50.364;14.874;2023-06-05T02:05:07;6.07;;;2.75;;
66546;SDS011;53400;50.364;14.874;2023-06-05T02:07:34;6.13;;;2.65;;
66546;SDS011;53400;50.364;14.874;2023-06-05T02:10:04;7.60;;;2.67;;
66546;SDS011;53400;50.364;14.874;2023-06-05T02:12:30;6.90;;;2.60;;
66546;SDS011;53400;50.364;14.874;2023-06-05T02:14:59;7.03;;;3.30;;
66546;SDS011;53400;50.364;14.874;2023-06-05T02:17:26;7.70;;;3.00;;
66546;SDS011;53400;50.364;14.874;2023-06-05T02:19:53;5.90;;;3.33;;
66546;SDS011;53400;50.364;14.874;2023-06-05T02:22:20;5.78;;;2.80;;
66546;SDS011;53400;50.364;14.874;2023-06-05T02:24:50;5.70;;;2.58;;
66546;SDS011;53400;50.364;14.874;2023-06-05T02:27:17;6.18;;;2.60;;
66546;SDS011;53400;50.364;14.874;2023-06-05T02:29:44;6.43;;;2.85;;
66546;SDS011;53400;50.364;14.874;2023-06-05T02:32:12;4.80;;;2.60;;
66546;SDS011;53400;50.364;14.874;2023-06-05T02:34:38;6.00;;;2.92;;
66546;SDS011;53400;50.364;14.874;2023-06-05T02:37:05;5.50;;;2.70;;
66546;SDS011;53400;50.364;14.874;2023-06-05T02:39:32;5.88;;;2.67;;
66546;SDS011;53400;50.364;14.874;2023-06-05T02:41:58;5.82;;;2.47;;
66546;SDS011;53400;50.364;14.874;2023-06-05T02:44:25;6.28;;;2.88;;
66546;SDS011;53400;50.364;14.874;2023-06-05T02:46:51;5.90;;;2.92;;
66546;SDS011;53400;50.364;14.874;2023-06-05T02:49:21;6.43;;;2.45;;
66546;SDS011;53400;50.364;14.874;2023-06-05T02:51:47;6.88;;;2.80;;
66546;SDS011;53400;50.364;14.874;2023-06-05T02:54:13;5.43;;;2.75;;
66546;SDS011;53400;50.364;14.874;2023-06-05T02:56:39;6.53;;;3.03;;
66546;SDS011;53400;50.364;14.874;2023-06-05T02:59:06;5.75;;;2.88;;
66546;SDS011;53400;50.364;14.874;2023-06-05T03:01:34;6.43;;;2.80;;
66546;SDS011;53400;50.364;14.874;2023-06-05T03:04:01;6.60;;;2.85;;
66546;SDS011;53400;50.364;14.874;2023-06-05T03:06:29;6.63;;;2.80;;
66546;SDS011;53400;50.364;14.874;2023-06-05T03:08:59;5.63;;;2.58;;
66546;SDS011;53400;50.364;14.874;2023-06-05T03:11:26;5.45;;;2.55;;
66546;SDS011;53400;50.364;14.874;2023-06-05T03:13:52;5.78;;;2.72;;
66546;SDS011;53400;50.364;14.874;2023-06-05T03:16:19;5.65;;;3.00;;
66546;SDS011;53400;50.364;14.874;2023-06-05T03:18:45;6.78;;;3.00;;
66546;SDS011;53400;50.364;14.874;2023-06-05T03:21:11;5.82;;;2.70;;
66546;SDS011;53400;50.364;14.874;2023-06-05T03:23:39;5.55;;;2.97;;
66546;SDS011;53400;50.364;14.874;2023-06-05T03:26:06;6.53;;;3.00;;
66546;SDS011;53400;50.364;14.874;2023-06-05T03:28:32;6.80;;;2.90;;
66546;SDS011;53400;50.364;14.874;2023-06-05T03:30:59;7.95;;;3.17;;
66546;SDS011;53400;50.364;14.874;2023-06-05T03:33:25;6.72;;;3.42;;
66546;SDS011;53400;50.364;14.874;2023-06-05T03:35:51;8.15;;;3.00;;
66546;SDS011;53400;50.364;14.874;2023-06-05T03:38:22;8.35;;;2.90;;
66546;SDS011;53400;50.364;14.874;2023-06-05T03:40:51;6.80;;;2.97;;
66546;SDS011;53400;50.364;14.874;2023-06-05T03:43:22;6.00;;;2.95;;
66546;SDS011;53400;50.364;14.874;2023-06-05T03:45:54;6.50;;;2.88;;
66546;SDS011;53400;50.364;14.874;2023-06-05T03:48:22;6.65;;;3.60;;
66546;SDS011;53400;50.364;14.874;2023-06-05T03:50:51;5.88;;;3.00;;
66546;SDS011;53400;50.364;14.874;2023-06-05T03:53:18;7.32;;;3.08;;
66546;SDS011;53400;50.364;14.874;2023-06-05T03:55:44;6.60;;;3.10;;
66546;SDS011;53400;50.364;14.874;2023-06-05T03:58:14;6.07;;;3.05;;
66546;SDS011;53400;50.364;14.874;2023-06-05T04:00:41;8.40;;;3.35;;
66546;SDS011;53400;50.364;14.874;2023-06-05T04:03:10;5.97;;;2.80;;
66546;SDS011;53400;50.364;14.874;2023-06-05T04:05:38;5.72;;;3.10;;
66546;SDS011;53400;50.364;14.874;2023-06-05T04:08:05;6.10;;;2.95;;
66546;SDS011;53400;50.364;14.874;2023-06-05T04:10:31;6.50;;;2.78;;
66546;SDS011;53400;50.364;14.874;2023-06-05T04:12:58;6.20;;;3.00;;
66546;SDS011;53400;50.364;14.874;2023-06-05T04:15:25;6.00;;;2.75;;
66546;SDS011;53400;50.364;14.874;2023-06-05T04:17:52;6.30;;;2.60;;
66546;SDS011;53400;50.364;14.874;2023-06-05T04:20:18;6.63;;;3.22;;
66546;SDS011;53400;50.364;14.874;2023-06-05T04:22:45;6.75;;;2.78;;
66546;SDS011;53400;50.364;14.874;2023-06-05T04:25:11;7.00;;;2.67;;
66546;SDS011;53400;50.364;14.874;2023-06-05T04:27:39;7.38;;;3.17;;
66546;SDS011;53400;50.364;14.874;2023-06-05T04:30:06;8.13;;;3.35;;
66546;SDS011;53400;50.364;14.874;2023-06-05T04:32:36;6.57;;;2.90;;
66546;SDS011;53400;50.364;14.874;2023-06-05T04:35:04;5.60;;;2.55;;
66546;SDS011;53400;50.364;14.874;2023-06-05T04:37:32;6.22;;;2.97;;
66546;SDS011;53400;50.364;14.874;2023-06-05T04:39:58;5.72;;;3.20;;
66546;SDS011;53400;50.364;14.874;2023-06-05T04:42:24;9.95;;;4.10;;
66546;SDS011;53400;50.364;14.874;2023-06-05T04:44:53;7.07;;;3.50;;
66546;SDS011;53400;50.364;14.874;2023-06-05T04:47:22;8.88;;;3.60;;
66546;SDS011;53400;50.364;14.874;2023-06-05T04:49:50;6.80;;;3.70;;
66546;SDS011;53400;50.364;14.874;2023-06-05T04:52:17;6.07;;;3.40;;
66546;SDS011;53400;50.364;14.874;2023-06-05T04:54:46;8.85;;;3.85;;
66546;SDS011;53400;50.364;14.874;2023-06-05T04:57:12;7.35;;;3.92;;
66546;SDS011;53400;50.364;14.874;2023-06-05T04:59:38;7.72;;;4.05;;
66546;SDS011;53400;50.364;14.874;2023-06-05T05:02:05;8.40;;;4.65;;
66546;SDS011;53400;50.364;14.874;2023-06-05T05:04:31;9.50;;;4.40;;
66546;SDS011;53400;50.364;14.874;2023-06-05T05:06:58;6.82;;;4.20;;
66546;SDS011;53400;50.364;14.874;2023-06-05T05:09:26;10.48;;;4.57;;
66546;SDS011;53400;50.364;14.874;2023-06-05T05:11:52;9.18;;;4.22;;
66546;SDS011;53400;50.364;14.874;2023-06-05T05:14:18;7.93;;;3.85;;
66546;SDS011;53400;50.364;14.874;2023-06-05T05:16:44;7.20;;;4.03;;
66546;SDS011;53400;50.364;14.874;2023-06-05T05:19:10;6.65;;;3.45;;
66546;SDS011;53400;50.364;14.874;2023-06-05T05:21:38;6.60;;;3.20;;
66546;SDS011;53400;50.364;14.874;2023-06-05T05:24:06;7.60;;;3.58;;
66546;SDS011;53400;50.364;14.874;2023-06-05T05:26:32;8.40;;;3.38;;
66546;SDS011;53400;50.364;14.874;2023-06-05T05:28:58;6.28;;;3.80;;
66546;SDS011;53400;50.364;14.874;2023-06-05T05:31:25;7.10;;;3.25;;
66546;SDS011;53400;50.364;14.874;2023-06-05T05:33:51;5.53;;;3.05;;
66546;SDS011;53400;50.364;14.874;2023-06-05T05:36:18;8.00;;;3.30;;
66546;SDS011;53400;50.364;14.874;2023-06-05T05:38:44;6.93;;;3.42;;
66546;SDS011;53400;50.364;14.874;2023-06-05T05:41:11;8.70;;;3.00;;
66546;SDS011;53400;50.364;14.874;2023-06-05T05:43:37;6.88;;;3.20;;
66546;SDS011;53400;50.364;14.874;2023-06-05T05:46:04;10.68;;;3.30;;
66546;SDS011;53400;50.364;14.874;2023-06-05T05:48:30;9.75;;;3.15;;
66546;SDS011;53400;50.364;14.874;2023-06-05T05:50:56;7.57;;;2.90;;
66546;SDS011;53400;50.364;14.874;2023-06-05T05:53:22;6.85;;;3.45;;
66546;SDS011;53400;50.364;14.874;2023-06-05T05:55:48;8.73;;;3.10;;
66546;SDS011;53400;50.364;14.874;2023-06-05T05:58:16;6.45;;;3.08;;
66546;SDS011;53400;50.364;14.874;2023-06-05T06:00:42;7.10;;;2.85;;
66546;SDS011;53400;50.364;14.874;2023-06-05T06:03:08;7.72;;;2.95;;
66546;SDS011;53400;50.364;14.874;2023-06-05T06:05:35;7.82;;;2.83;;
66546;SDS011;53400;50.364;14.874;2023-06-05T06:08:01;7.28;;;3.10;;
66546;SDS011;53400;50.364;14.874;2023-06-05T06:10:29;7.55;;;3.00;;
66546;SDS011;53400;50.364;14.874;2023-06-05T06:12:56;7.75;;;2.72;;
66546;SDS011;53400;50.364;14.874;2023-06-05T06:15:24;7.13;;;3.17;;
66546;SDS011;53400;50.364;14.874;2023-06-05T06:17:51;6.43;;;2.78;;
66546;SDS011;53400;50.364;14.874;2023-06-05T06:20:17;6.38;;;3.08;;
66546;SDS011;53400;50.364;14.874;2023-06-05T06:22:43;6.75;;;2.70;;
66546;SDS011;53400;50.364;14.874;2023-06-05T06:25:11;5.53;;;2.47;;
66546;SDS011;53400;50.364;14.874;2023-06-05T06:27:37;7.97;;;2.67;;
66546;SDS011;53400;50.364;14.874;2023-06-05T06:30:04;6.10;;;2.65;;
66546;SDS011;53400;50.364;14.874;2023-06-05T06:32:33;6.45;;;2.95;;
66546;SDS011;53400;50.364;14.874;2023-06-05T06:35:00;5.85;;;2.67;;
66546;SDS011;53400;50.364;14.874;2023-06-05T06:37:26;8.23;;;2.95;;
66546;SDS011;53400;50.364;14.874;2023-06-05T06:39:52;5.43;;;2.28;;
66546;SDS011;53400;50.364;14.874;2023-06-05T06:42:18;6.68;;;2.30;;
66546;SDS011;53400;50.364;14.874;2023-06-05T06:44:45;5.97;;;2.40;;
66546;SDS011;53400;50.364;14.874;2023-06-05T06:47:11;7.72;;;2.47;;
66546;SDS011;53400;50.364;14.874;2023-06-05T06:49:39;7.47;;;2.60;;
66546;SDS011;53400;50.364;14.874;2023-06-05T06:52:06;7.72;;;2.40;;
66546;SDS011;53400;50.364;14.874;2023-06-05T06:54:32;5.25;;;2.30;;
66546;SDS011;53400;50.364;14.874;2023-06-05T06:56:59;5.50;;;2.38;;
66546;SDS011;53400;50.364;14.874;2023-06-05T06:59:26;5.63;;;2.28;;
66546;SDS011;53400;50.364;14.874;2023-06-05T07:02:08;6.53;;;2.10;;
66546;SDS011;53400;50.364;14.874;2023-06-05T07:04:36;6.43;;;2.20;;
66546;SDS011;53400;50.364;14.874;2023-06-05T07:07:04;5.03;;;2.20;;
66546;SDS011;53400;50.364;14.874;2023-06-05T07:09:30;7.97;;;2.58;;
66546;SDS011;53400;50.364;14.874;2023-06-05T07:11:56;7.32;;;2.25;;
66546;SDS011;53400;50.364;14.874;2023-06-05T07:14:24;7.00;;;2.85;;
66546;SDS011;53400;50.364;14.874;2023-06-05T07:16:50;6.95;;;2.25;;
66546;SDS011;53400;50.364;14.874;2023-06-05T07:19:22;6.28;;;2.50;;
66546;SDS011;53400;50.364;14.874;2023-06-05T07:21:48;8.95;;;2.60;;
66546;SDS011;53400;50.364;14.874;2023-06-05T07:24:15;6.97;;;2.50;;
66546;SDS011;53400;50.364;14.874;2023-06-05T07:26:43;6.50;;;2.22;;
66546;SDS011;53400;50.364;14.874;2023-06-05T07:29:10;5.75;;;2.55;;
66546;SDS011;53400;50.364;14.874;2023-06-05T07:31:36;6.38;;;2.28;;
66546;SDS011;53400;50.364;14.874;2023-06-05T07:34:04;6.50;;;2.40;;
66546;SDS011;53400;50.364;14.874;2023-06-05T07:36:30;5.47;;;2.42;;
66546;SDS011;53400;50.364;14.874;2023-06-05T07:38:56;5.75;;;2.40;;
66546;SDS011;53400;50.364;14.874;2023-06-05T07:41:24;7.55;;;2.50;;
66546;SDS011;53400;50.364;14.874;2023-06-05T07:43:51;5.13;;;2.50;;
66546;SDS011;53400;50.364;14.874;2023-06-05T07:46:17;7.40;;;2.58;;
66546;SDS011;53400;50.364;14.874;2023-06-05T07:48:43;6.40;;;2.50;;
66546;SDS011;53400;50.364;14.874;2023-06-05T07:51:08;6.05;;;2.38;;
66546;SDS011;53400;50.364;14.874;2023-06-05T07:53:35;6.32;;;2.65;;
66546;SDS011;53400;50.364;14.874;2023-06-05T07:56:01;7.45;;;2.80;;
66546;SDS011;53400;50.364;14.874;2023-06-05T07:58:29;6.15;;;2.90;;
66546;SDS011;53400;50.364;14.874;2023-06-05T08:00:55;5.97;;;2.85;;
66546;SDS011;53400;50.364;14.874;2023-06-05T08:03:22;7.75;;;3.10;;
66546;SDS011;53400;50.364;14.874;2023-06-05T08:05:49;5.07;;;2.58;;
66546;SDS011;53400;50.364;14.874;2023-06-05T08:08:15;8.25;;;3.03;;
66546;SDS011;53400;50.364;14.874;2023-06-05T08:10:41;7.70;;;2.70;;
66546;SDS011;53400;50.364;14.874;2023-06-05T08:13:08;7.22;;;2.67;;
66546;SDS011;53400;50.364;14.874;2023-06-05T08:15:36;6.82;;;2.80;;
66546;SDS011;53400;50.364;14.874;2023-06-05T08:18:02;7.63;;;3.08;;
66546;SDS011;53400;50.364;14.874;2023-06-05T08:20:28;6.57;;;2.85;;
66546;SDS011;53400;50.364;14.874;2023-06-05T08:22:55;5.97;;;2.85;;
66546;SDS011;53400;50.364;14.874;2023-06-05T08:25:24;5.00;;;2.60;;
66546;SDS011;53400;50.364;14.874;2023-06-05T08:27:50;6.97;;;2.70;;
66546;SDS011;53400;50.364;14.874;2023-06-05T08:30:16;5.63;;;3.00;;
66546;SDS011;53400;50.364;14.874;2023-06-05T08:32:44;6.40;;;2.80;;
66546;SDS011;53400;50.364;14.874;2023-06-05T08:35:11;5.07;;;2.90;;
66546;SDS011;53400;50.364;14.874;2023-06-05T08:37:37;8.15;;;3.08;;
66546;SDS011;53400;50.364;14.874;2023-06-05T08:40:04;8.82;;;3.25;;
66546;SDS011;53400;50.364;14.874;2023-06-05T08:42:34;5.57;;;2.83;;
66546;SDS011;53400;50.364;14.874;2023-06-05T08:45:01;6.20;;;3.00;;
66546;SDS011;53400;50.364;14.874;2023-06-05T08:47:28;7.43;;;3.33;;
66546;SDS011;53400;50.364;14.874;2023-06-05T08:50:01;6.53;;;3.28;;
66546;SDS011;53400;50.364;14.874;2023-06-05T08:52:28;6.80;;;3.67;;
66546;SDS011;53400;50.364;14.874;2023-06-05T08:54:58;9.13;;;3.65;;
66546;SDS011;53400;50.364;14.874;2023-06-05T08:57:26;7.20;;;3.83;;
66546;SDS011;53400;50.364;14.874;2023-06-05T08:59:53;6.88;;;3.65;;
66546;SDS011;53400;50.364;14.874;2023-06-05T09:02:19;6.63;;;3.30;;
66546;SDS011;53400;50.364;14.874;2023-06-05T09:04:45;6.82;;;3.40;;
66546;SDS011;53400;50.364;14.874;2023-06-05T09:07:14;6.70;;;3.58;;
66546;SDS011;53400;50.364;14.874;2023-06-05T09:09:40;6.90;;;3.30;;
66546;SDS011;53400;50.364;14.874;2023-06-05T09:12:08;9.60;;;3.78;;
66546;SDS011;53400;50.364;14.874;2023-06-05T09:14:34;6.22;;;3.53;;
66546;SDS011;53400;50.364;14.874;2023-06-05T09:17:02;6.18;;;3.80;;
66546;SDS011;53400;50.364;14.874;2023-06-05T09:19:35;6.47;;;3.03;;
66546;SDS011;53400;50.364;14.874;2023-06-05T09:22:02;5.63;;;3.35;;
66546;SDS011;53400;50.364;14.874;2023-06-05T09:24:32;8.70;;;3.55;;
66546;SDS011;53400;50.364;14.874;2023-06-05T09:27:00;6.30;;;3.25;;
66546;SDS011;53400;50.364;14.874;2023-06-05T09:29:27;7.78;;;3.75;;
66546;SDS011;53400;50.364;14.874;2023-06-05T09:31:55;5.88;;;3.65;;
66546;SDS011;53400;50.364;14.874;2023-06-05T09:34:26;6.88;;;3.20;;
66546;SDS011;53400;50.364;14.874;2023-06-05T09:36:55;7.88;;;3.65;;
66546;SDS011;53400;50.364;14.874;2023-06-05T09:39:22;6.70;;;3.50;;
66546;SDS011;53400;50.364;14.874;2023-06-05T09:41:54;7.35;;;3.60;;
66546;SDS011;53400;50.364;14.874;2023-06-05T09:44:21;7.20;;;3.60;;
66546;SDS011;53400;50.364;14.874;2023-06-05T09:46:52;5.85;;;3.45;;
66546;SDS011;53400;50.364;14.874;2023-06-05T09:49:20;6.80;;;3.33;;
66546;SDS011;53400;50.364;14.874;2023-06-05T09:51:47;8.18;;;3.20;;
66546;SDS011;53400;50.364;14.874;2023-06-05T09:54:13;5.55;;;3.10;;
66546;SDS011;53400;50.364;14.874;2023-06-05T09:56:40;6.25;;;3.05;;
66546;SDS011;53400;50.364;14.874;2023-06-05T09:59:08;7.32;;;2.95;;
66546;SDS011;53400;50.364;14.874;2023-06-05T10:01:39;6.88;;;3.08;;
66546;SDS011;53400;50.364;14.874;2023-06-05T10:04:08;6.57;;;3.25;;
66546;SDS011;53400;50.364;14.874;2023-06-05T10:06:36;7.65;;;3.42;;
66546;SDS011;53400;50.364;14.874;2023-06-05T10:09:06;8.40;;;3.53;;
66546;SDS011;53400;50.364;14.874;2023-06-05T10:11:33;6.35;;;3.28;;
66546;SDS011;53400;50.364;14.874;2023-06-05T10:13:59;8.68;;;3.30;;
66546;SDS011;53400;50.364;14.874;2023-06-05T10:16:28;5.90;;;3.30;;
66546;SDS011;53400;50.364;14.874;2023-06-05T10:18:55;6.07;;;3.60;;
66546;SDS011;53400;50.364;14.874;2023-06-05T10:21:22;7.10;;;3.40;;
66546;SDS011;53400;50.364;14.874;2023-06-05T10:23:50;6.38;;;3.33;;
66546;SDS011;53400;50.364;14.874;2023-06-05T10:26:24;5.72;;;3.33;;
66546;SDS011;53400;50.364;14.874;2023-06-05T10:29:03;6.03;;;3.70;;
66546;SDS011;53400;50.364;14.874;2023-06-05T10:31:45;6.95;;;3.22;;
66546;SDS011;53400;50.364;14.874;2023-06-05T10:34:17;5.82;;;3.20;;
66546;SDS011;53400;50.364;14.874;2023-06-05T10:37:06;7.68;;;3.40;;
66546;SDS011;53400;50.364;14.874;2023-06-05T10:39:47;7.65;;;3.50;;
66546;SDS011;53400;50.364;14.874;2023-06-05T10:42:22;8.15;;;3.40;;
66546;SDS011;53400;50.364;14.874;2023-06-05T10:44:49;10.02;;;3.58;;
66546;SDS011;53400;50.364;14.874;2023-06-05T10:50:20;7.03;;;3.70;;
66546;SDS011;53400;50.364;14.874;2023-06-05T10:52:53;6.63;;;3.67;;
66546;SDS011;53400;50.364;14.874;2023-06-05T10:55:20;6.57;;;3.65;;
66546;SDS011;53400;50.364;14.874;2023-06-05T10:58:04;6.88;;;2.92;;
66546;SDS011;53400;50.364;14.874;2023-06-05T11:00:34;7.90;;;3.50;;
66546;SDS011;53400;50.364;14.874;2023-06-05T11:03:04;6.03;;;2.95;;
66546;SDS011;53400;50.364;14.874;2023-06-05T11:05:34;7.05;;;3.67;;
66546;SDS011;53400;50.364;14.874;2023-06-05T11:11:04;8.23;;;3.88;;
66546;SDS011;53400;50.364;14.874;2023-06-05T11:16:27;6.72;;;3.85;;
66546;SDS011;53400;50.364;14.874;2023-06-05T11:22:02;7.65;;;3.45;;
66546;SDS011;53400;50.364;14.874;2023-06-05T11:24:36;5.68;;;3.20;;
66546;SDS011;53400;50.364;14.874;2023-06-05T11:27:03;7.88;;;3.78;;
66546;SDS011;53400;50.364;14.874;2023-06-05T11:29:31;8.10;;;3.83;;
66546;SDS011;53400;50.364;14.874;2023-06-05T11:31:57;10.30;;;4.00;;
66546;SDS011;53400;50.364;14.874;2023-06-05T11:34:24;8.30;;;4.13;;
66546;SDS011;53400;50.364;14.874;2023-06-05T11:36:53;5.78;;;3.30;;
66546;SDS011;53400;50.364;14.874;2023-06-05T11:39:21;7.30;;;3.95;;
66546;SDS011;53400;50.364;14.874;2023-06-05T11:41:48;7.30;;;3.90;;
66546;SDS011;53400;50.364;14.874;2023-06-05T11:44:31;6.28;;;3.80;;
66546;SDS011;53400;50.364;14.874;2023-06-05T11:46:57;7.05;;;3.85;;
66546;SDS011;53400;50.364;14.874;2023-06-05T11:49:24;7.00;;;3.55;;
66546;SDS011;53400;50.364;14.874;2023-06-05T11:51:51;7.03;;;3.85;;
66546;SDS011;53400;50.364;14.874;2023-06-05T11:54:25;7.70;;;3.70;;
66546;SDS011;53400;50.364;14.874;2023-06-05T11:56:56;6.82;;;3.80;;
66546;SDS011;53400;50.364;14.874;2023-06-05T11:59:23;6.82;;;3.70;;
66546;SDS011;53400;50.364;14.874;2023-06-05T12:01:50;6.80;;;3.90;;
66546;SDS011;53400;50.364;14.874;2023-06-05T12:04:20;11.65;;;4.22;;
66546;SDS011;53400;50.364;14.874;2023-06-05T12:06:47;8.23;;;4.22;;
66546;SDS011;53400;50.364;14.874;2023-06-05T12:09:17;6.57;;;3.60;;
66546;SDS011;53400;50.364;14.874;2023-06-05T12:11:45;8.40;;;3.83;;
66546;SDS011;53400;50.364;14.874;2023-06-05T12:14:12;6.45;;;3.70;;
66546;SDS011;53400;50.364;14.874;2023-06-05T12:16:52;6.22;;;3.63;;
66546;SDS011;53400;50.364;14.874;2023-06-05T12:19:18;7.25;;;3.55;;
66546;SDS011;53400;50.364;14.874;2023-06-05T12:21:45;5.82;;;3.63;;
66546;SDS011;53400;50.364;14.874;2023-06-05T12:24:12;6.82;;;3.78;;
66546;SDS011;53400;50.364;14.874;2023-06-05T12:26:49;6.38;;;3.80;;
66546;SDS011;53400;50.364;14.874;2023-06-05T12:29:19;7.68;;;4.00;;
66546;SDS011;53400;50.364;14.874;2023-06-05T12:31:47;6.57;;;3.72;;
66546;SDS011;53400;50.364;14.874;2023-06-05T12:34:14;7.57;;;3.63;;
66546;SDS011;53400;50.364;14.874;2023-06-05T12:36:44;6.18;;;3.80;;
66546;SDS011;53400;50.364;14.874;2023-06-05T12:39:11;7.80;;;3.60;;
66546;SDS011;53400;50.364;14.874;2023-06-05T12:41:38;7.90;;;3.70;;
66546;SDS011;53400;50.364;14.874;2023-06-05T12:44:06;6.68;;;3.67;;
66546;SDS011;53400;50.364;14.874;2023-06-05T12:46:34;7.75;;;3.95;;
66546;SDS011;53400;50.364;14.874;2023-06-05T12:49:01;7.70;;;4.38;;
66546;SDS011;53400;50.364;14.874;2023-06-05T12:51:28;7.75;;;3.90;;
66546;SDS011;53400;50.364;14.874;2023-06-05T12:53:54;8.02;;;4.00;;
66546;SDS011;53400;50.364;14.874;2023-06-05T12:56:21;8.23;;;3.70;;
66546;SDS011;53400;50.364;14.874;2023-06-05T12:58:53;7.30;;;3.78;;
66546;SDS011;53400;50.364;14.874;2023-06-05T13:01:22;6.38;;;3.97;;
66546;SDS011;53400;50.364;14.874;2023-06-05T13:03:49;7.05;;;3.97;;
66546;SDS011;53400;50.364;14.874;2023-06-05T13:06:15;7.38;;;4.03;;
66546;SDS011;53400;50.364;14.874;2023-06-05T13:08:42;9.50;;;4.25;;
66546;SDS011;53400;50.364;14.874;2023-06-05T13:11:08;8.07;;;4.38;;
66546;SDS011;53400;50.364;14.874;2023-06-05T13:13:35;8.82;;;4.70;;
66546;SDS011;53400;50.364;14.874;2023-06-05T13:16:02;7.30;;;4.85;;
66546;SDS011;53400;50.364;14.874;2023-06-05T13:18:34;7.25;;;4.72;;
66546;SDS011;53400;50.364;14.874;2023-06-05T13:21:01;9.43;;;5.03;;
66546;SDS011;53400;50.364;14.874;2023-06-05T13:23:28;7.10;;;4.95;;
66546;SDS011;53400;50.364;14.874;2023-06-05T13:25:54;8.95;;;5.47;;
66546;SDS011;53400;50.364;14.874;2023-06-05T13:28:21;8.13;;;5.22;;
66546;SDS011;53400;50.364;14.874;2023-06-05T13:30:47;9.05;;;5.60;;
66546;SDS011;53400;50.364;14.874;2023-06-05T13:33:13;8.40;;;5.55;;
66546;SDS011;53400;50.364;14.874;2023-06-05T13:35:40;8.93;;;5.63;;
66546;SDS011;53400;50.364;14.874;2023-06-05T13:38:07;8.32;;;5.68;;
66546;SDS011;53400;50.364;14.874;2023-06-05T13:40:32;8.40;;;5.35;;
66546;SDS011;53400;50.364;14.874;2023-06-05T13:42:59;9.25;;;5.60;;
66546;SDS011;53400;50.364;14.874;2023-06-05T13:45:25;10.90;;;5.93;;
66546;SDS011;53400;50.364;14.874;2023-06-05T13:47:51;9.68;;;6.15;;
66546;SDS011;53400;50.364;14.874;2023-06-05T13:50:19;9.98;;;6.25;;
66546;SDS011;53400;50.364;14.874;2023-06-05T13:52:47;10.48;;;6.13;;
66546;SDS011;53400;50.364;14.874;2023-06-05T13:55:13;9.57;;;6.10;;
66546;SDS011;53400;50.364;14.874;2023-06-05T13:57:40;10.15;;;6.32;;
66546;SDS011;53400;50.364;14.874;2023-06-05T14:00:06;11.00;;;6.32;;
66546;SDS011;53400;50.364;14.874;2023-06-05T14:02:33;9.20;;;5.78;;
66546;SDS011;53400;50.364;14.874;2023-06-05T14:05:00;11.68;;;6.72;;
66546;SDS011;53400;50.364;14.874;2023-06-05T14:07:26;10.10;;;6.25;;
66546;SDS011;53400;50.364;14.874;2023-06-05T14:09:53;9.45;;;6.90;;
66546;SDS011;53400;50.364;14.874;2023-06-05T14:12:19;11.48;;;7.10;;
66546;SDS011;53400;50.364;14.874;2023-06-05T14:14:46;11.15;;;7.38;;
66546;SDS011;53400;50.364;14.874;2023-06-05T14:17:12;10.13;;;6.57;;
66546;SDS011;53400;50.364;14.874;2023-06-05T14:19:38;10.45;;;6.80;;
66546;SDS011;53400;50.364;14.874;2023-06-05T14:22:05;11.25;;;7.70;;
66546;SDS011;53400;50.364;14.874;2023-06-05T14:24:33;10.30;;;6.72;;
66546;SDS011;53400;50.364;14.874;2023-06-05T14:27:01;10.18;;;6.63;;
66546;SDS011;53400;50.364;14.874;2023-06-05T14:29:27;9.95;;;7.35;;
66546;SDS011;53400;50.364;14.874;2023-06-05T14:31:54;10.68;;;6.97;;
66546;SDS011;53400;50.364;14.874;2023-06-05T14:34:20;11.07;;;6.95;;
66546;SDS011;53400;50.364;14.874;2023-06-05T14:36:47;9.95;;;6.65;;
66546;SDS011;53400;50.364;14.874;2023-06-05T14:39:17;9.70;;;6.85;;
66546;SDS011;53400;50.364;14.874;2023-06-05T14:41:46;13.25;;;6.85;;
66546;SDS011;53400;50.364;14.874;2023-06-05T14:44:15;9.88;;;6.32;;
66546;SDS011;53400;50.364;14.874;2023-06-05T14:46:45;10.35;;;6.70;;
66546;SDS011;53400;50.364;14.874;2023-06-05T14:49:14;11.05;;;6.13;;